createdAt,value
2023-01-13T00:01:15.834Z,9.70
2023-01-13T00:03:43.102Z,9.70
2023-01-13T00:06:13.703Z,9.70
2023-01-13T00:08:40.353Z,9.70
2023-01-13T00:11:06.970Z,9.70
2023-01-13T00:13:35.286Z,9.70
2023-01-13T00:16:05.336Z,9.70
2023-01-13T00:18:33.162Z,9.70
2023-01-13T00:21:17.502Z,9.80
2023-01-13T00:23:44.749Z,9.80
2023-01-13T00:26:14.088Z,9.80
2023-01-13T00:28:40.851Z,9.70
2023-01-13T00:31:09.751Z,9.90
2023-01-13T00:33:37.027Z,9.90
2023-01-13T00:36:05.410Z,9.90
2023-01-13T00:38:34.119Z,9.90
2023-01-13T00:41:04.324Z,9.80
2023-01-13T00:43:32.593Z,9.90
2023-01-13T00:45:59.927Z,9.80
2023-01-13T00:48:27.132Z,9.90
2023-01-13T00:51:01.884Z,9.90
2023-01-13T00:53:30.296Z,9.90
2023-01-13T00:56:05.962Z,9.90
2023-01-13T00:58:34.227Z,9.90
2023-01-13T01:01:02.459Z,9.90
2023-01-13T01:03:29.602Z,9.90
2023-01-13T01:05:57.347Z,9.90
2023-01-13T01:08:24.079Z,10.00
2023-01-13T01:10:59.793Z,9.90
2023-01-13T01:13:26.379Z,9.90
2023-01-13T01:15:53.004Z,10.00
2023-01-13T01:18:19.644Z,10.20
2023-01-13T01:20:46.236Z,10.00
2023-01-13T01:23:12.833Z,10.00
2023-01-13T01:25:39.428Z,10.00
2023-01-13T01:28:06.064Z,10.00
2023-01-13T01:30:32.945Z,10.00
2023-01-13T01:32:59.662Z,10.00
2023-01-13T01:35:26.289Z,10.00
2023-01-13T01:37:52.886Z,10.00
2023-01-13T01:40:19.691Z,10.00
2023-01-13T01:43:05.078Z,10.00
2023-01-13T01:45:31.864Z,10.00
2023-01-13T01:48:02.505Z,10.00
2023-01-13T01:50:31.226Z,10.10
2023-01-13T01:53:07.076Z,10.10
2023-01-13T01:55:36.939Z,10.00
2023-01-13T01:58:09.290Z,10.00
2023-01-13T02:00:35.969Z,10.00
2023-01-13T02:03:04.613Z,10.00
2023-01-13T02:05:31.273Z,10.00
2023-01-13T02:07:59.894Z,10.00
2023-01-13T02:10:28.099Z,10.00
2023-01-13T02:12:59.288Z,10.10
2023-01-13T02:15:47.308Z,10.10
2023-01-13T02:18:25.704Z,10.10
2023-01-13T02:21:10.524Z,10.10
2023-01-13T02:24:21.088Z,10.10
2023-01-13T02:26:50.682Z,10.10
2023-01-13T02:30:09.378Z,10.10
2023-01-13T02:32:55.138Z,10.10
2023-01-13T02:35:28.103Z,10.10
2023-01-13T02:37:57.008Z,10.10
2023-01-13T02:40:38.648Z,10.10
2023-01-13T02:43:30.788Z,10.10
2023-01-13T02:46:19.276Z,10.10
2023-01-13T02:48:49.937Z,10.10
2023-01-13T02:51:19.665Z,10.20
2023-01-13T02:53:58.395Z,10.20
2023-01-13T02:56:27.161Z,10.20
2023-01-13T02:58:56.165Z,10.20
2023-01-13T03:01:23.945Z,10.20
2023-01-13T03:03:50.637Z,10.20
2023-01-13T03:06:52.408Z,10.20
2023-01-13T03:09:37.217Z,10.20
2023-01-13T03:12:20.157Z,10.20
2023-01-13T03:14:57.262Z,10.20
2023-01-13T03:17:39.425Z,10.20
2023-01-13T03:20:21.753Z,10.20
2023-01-13T03:23:00.903Z,10.20
2023-01-13T03:26:00.624Z,10.30
2023-01-13T03:28:37.566Z,10.20
2023-01-13T03:31:11.244Z,10.20
2023-01-13T03:33:45.327Z,10.20
2023-01-13T03:36:16.647Z,10.40
2023-01-13T03:38:48.862Z,10.20
2023-01-13T03:41:22.652Z,10.20
2023-01-13T03:44:16.038Z,10.20
2023-01-13T03:46:58.860Z,10.30
2023-01-13T03:49:43.378Z,10.20
2023-01-13T03:52:14.791Z,10.20
2023-01-13T03:55:10.556Z,10.20
2023-01-13T03:57:47.387Z,10.20
2023-01-13T04:00:15.843Z,10.20
2023-01-13T04:02:54.784Z,10.20
2023-01-13T04:05:22.526Z,10.20
2023-01-13T04:08:23.438Z,10.30
2023-01-13T04:11:02.675Z,10.30
2023-01-13T04:13:33.847Z,10.20
2023-01-13T04:16:00.952Z,10.20
2023-01-13T04:18:33.115Z,10.20
2023-01-13T04:21:01.437Z,10.20
2023-01-13T04:23:28.659Z,10.20
2023-01-13T04:25:55.457Z,10.20
2023-01-13T04:28:22.874Z,10.20
2023-01-13T04:30:49.531Z,10.10
2023-01-13T04:33:18.201Z,10.10
2023-01-13T04:35:46.053Z,10.00
2023-01-13T04:38:14.779Z,9.90
2023-01-13T04:40:42.115Z,9.90
2023-01-13T04:43:08.804Z,9.80
2023-01-13T04:45:35.411Z,9.80
2023-01-13T04:48:02.250Z,9.80
2023-01-13T04:50:28.914Z,9.70
2023-01-13T04:52:55.712Z,9.70
2023-01-13T04:55:23.879Z,9.70
2023-01-13T04:57:50.686Z,9.70
2023-01-13T05:00:22.376Z,9.60
2023-01-13T05:02:52.154Z,9.70
2023-01-13T05:05:19.006Z,9.60
2023-01-13T05:07:46.187Z,9.60
2023-01-13T05:10:13.153Z,9.60
2023-01-13T05:13:02.976Z,9.50
2023-01-13T05:15:48.326Z,9.50
2023-01-13T05:18:16.556Z,9.50
2023-01-13T05:20:43.209Z,9.50
2023-01-13T05:23:28.702Z,9.50
2023-01-13T05:25:55.378Z,9.50
2023-01-13T05:28:22.127Z,9.50
2023-01-13T05:30:49.612Z,9.40
2023-01-13T05:33:20.144Z,9.40
2023-01-13T05:35:47.735Z,9.40
2023-01-13T05:38:14.875Z,9.40
2023-01-13T05:41:00.495Z,9.40
2023-01-13T05:43:28.020Z,9.40
2023-01-13T05:45:59.317Z,9.40
2023-01-13T05:48:31.392Z,9.40
2023-01-13T05:50:58.126Z,9.40
2023-01-13T05:53:25.382Z,9.40
2023-01-13T05:55:52.914Z,9.40
2023-01-13T05:58:21.728Z,9.40
2023-01-13T06:00:49.035Z,9.40
2023-01-13T06:03:16.098Z,9.30
2023-01-13T06:05:43.715Z,9.30
2023-01-13T06:08:10.352Z,9.40
2023-01-13T06:10:37.013Z,9.40
2023-01-13T06:13:04.571Z,9.40
2023-01-13T06:15:31.762Z,9.40
2023-01-13T06:17:58.778Z,9.40
2023-01-13T06:20:25.515Z,9.40
2023-01-13T06:22:54.196Z,9.40
2023-01-13T06:25:29.750Z,9.40
2023-01-13T06:27:59.050Z,9.40
2023-01-13T06:30:29.607Z,9.40
2023-01-13T06:32:59.485Z,9.40
2023-01-13T06:35:30.085Z,9.40
2023-01-13T06:38:00.119Z,9.40
2023-01-13T06:40:26.793Z,9.50
2023-01-13T06:43:16.638Z,9.40
2023-01-13T06:45:45.298Z,9.40
2023-01-13T06:48:12.069Z,9.40
2023-01-13T06:50:38.848Z,9.40
2023-01-13T06:53:05.471Z,9.40
2023-01-13T06:55:32.096Z,9.40
2023-01-13T06:57:58.812Z,9.40
2023-01-13T07:00:26.611Z,9.40
2023-01-13T07:02:53.270Z,9.40
2023-01-13T07:05:20.734Z,9.40
2023-01-13T07:07:47.346Z,9.40
2023-01-13T07:10:22.016Z,9.40
2023-01-13T07:13:08.280Z,9.40
2023-01-13T07:15:35.624Z,9.40
2023-01-13T07:18:02.755Z,9.40
2023-01-13T07:20:30.181Z,9.40
2023-01-13T07:22:57.659Z,9.40
2023-01-13T07:25:24.448Z,9.40
2023-01-13T07:27:51.132Z,9.40
2023-01-13T07:30:18.041Z,9.40
2023-01-13T07:32:44.758Z,9.40
2023-01-13T07:35:11.420Z,9.40
2023-01-13T07:37:39.424Z,9.40
2023-01-13T07:40:06.789Z,9.30
2023-01-13T07:42:51.910Z,9.30
2023-01-13T07:45:18.593Z,9.30
2023-01-13T07:47:45.233Z,9.30
2023-01-13T07:50:11.881Z,9.30
2023-01-13T07:52:38.481Z,9.30
2023-01-13T07:55:05.470Z,9.30
2023-01-13T07:57:32.097Z,9.30
2023-01-13T07:59:58.700Z,9.30
2023-01-13T08:02:25.510Z,9.30
2023-01-13T08:04:52.265Z,9.30
2023-01-13T08:07:18.922Z,9.30
2023-01-13T08:09:45.598Z,9.30
2023-01-13T08:12:30.940Z,9.30
2023-01-13T08:14:57.583Z,9.30
2023-01-13T08:17:24.380Z,9.30
2023-01-13T08:19:51.055Z,9.30
2023-01-13T08:22:17.818Z,9.30
2023-01-13T08:24:44.481Z,9.30
2023-01-13T08:27:11.089Z,9.30
2023-01-13T08:29:37.678Z,9.30
2023-01-13T08:32:04.497Z,9.30
2023-01-13T08:34:31.167Z,9.30
2023-01-13T08:36:57.813Z,9.30
2023-01-13T08:39:25.132Z,9.30
2023-01-13T08:41:58.590Z,9.30
2023-01-13T08:44:30.669Z,9.30
2023-01-13T08:46:57.727Z,9.30
2023-01-13T08:49:25.532Z,9.30
2023-01-13T08:51:52.922Z,9.40
2023-01-13T08:54:20.053Z,9.30
2023-01-13T08:56:47.318Z,9.40
2023-01-13T08:59:16.632Z,9.40
2023-01-13T09:01:43.609Z,9.40
2023-01-13T09:04:19.942Z,9.40
2023-01-13T09:06:47.333Z,9.40
2023-01-13T09:09:14.149Z,9.40
2023-01-13T09:12:02.873Z,9.40
2023-01-13T09:14:32.459Z,9.40
2023-01-13T09:16:59.942Z,9.40
2023-01-13T09:19:27.305Z,9.40
2023-01-13T09:21:55.251Z,9.40
2023-01-13T09:24:24.305Z,9.50
2023-01-13T09:26:51.291Z,9.50
2023-01-13T09:29:18.432Z,9.50
2023-01-13T09:31:45.359Z,9.50
2023-01-13T09:34:38.716Z,9.50
2023-01-13T09:37:06.832Z,9.50
2023-01-13T09:39:34.984Z,9.50
2023-01-13T09:42:42.629Z,9.40
2023-01-13T09:45:14.316Z,9.30
2023-01-13T09:48:04.123Z,9.20
2023-01-13T09:50:34.329Z,9.10
2023-01-13T09:53:01.681Z,8.90
2023-01-13T09:55:38.263Z,8.80
2023-01-13T09:58:14.795Z,8.60
2023-01-13T10:01:06.670Z,8.50
2023-01-13T10:03:35.275Z,8.50
2023-01-13T10:06:17.518Z,8.50
2023-01-13T10:08:47.010Z,8.50
2023-01-13T10:11:33.768Z,8.60
2023-01-13T10:14:10.802Z,8.60
2023-01-13T10:16:48.066Z,8.70
2023-01-13T10:19:32.928Z,8.70
2023-01-13T10:22:12.549Z,8.70
2023-01-13T10:24:42.323Z,8.70
2023-01-13T10:27:39.688Z,8.70
2023-01-13T10:30:21.212Z,8.70
2023-01-13T10:33:11.023Z,8.70
2023-01-13T10:35:59.539Z,8.60
2023-01-13T10:38:35.340Z,8.60
2023-01-13T10:41:05.390Z,8.60
2023-01-13T10:43:32.295Z,8.60
2023-01-13T10:46:10.140Z,8.60
2023-01-13T10:48:36.791Z,8.60
2023-01-13T10:51:10.636Z,8.60
2023-01-13T10:53:46.380Z,8.60
2023-01-13T10:56:18.400Z,8.70
2023-01-13T10:58:45.212Z,8.70
2023-01-13T11:01:26.509Z,8.70
2023-01-13T11:03:54.808Z,8.70
2023-01-13T11:06:25.609Z,8.70
2023-01-13T11:08:55.234Z,8.70
2023-01-13T11:11:24.931Z,8.70
2023-01-13T11:14:13.389Z,8.70
2023-01-13T11:16:52.807Z,8.80
2023-01-13T11:19:22.535Z,8.80
2023-01-13T11:21:49.623Z,8.80
2023-01-13T11:24:29.896Z,8.80
2023-01-13T11:27:12.963Z,8.80
2023-01-13T11:30:01.215Z,8.80
2023-01-13T11:32:33.214Z,8.80
2023-01-13T11:35:04.494Z,8.80
2023-01-13T11:37:33.456Z,8.80
2023-01-13T11:40:06.400Z,8.90
2023-01-13T11:43:12.132Z,8.90
2023-01-13T11:45:44.616Z,8.90
2023-01-13T11:48:27.049Z,8.90
2023-01-13T11:51:26.527Z,8.90
2023-01-13T11:54:14.790Z,8.90
2023-01-13T11:56:50.759Z,9.00
2023-01-13T11:59:36.294Z,8.90
2023-01-13T12:02:21.633Z,8.90
2023-01-13T12:05:03.139Z,8.80
2023-01-13T12:07:32.800Z,8.80
2023-01-13T12:10:10.383Z,8.80
2023-01-13T12:13:00.274Z,8.80
2023-01-13T12:16:04.585Z,8.90
2023-01-13T12:18:40.310Z,8.90
2023-01-13T12:21:25.671Z,8.90
2023-01-13T12:24:01.385Z,8.90
2023-01-13T12:26:34.556Z,8.90
2023-01-13T12:29:07.465Z,8.90
2023-01-13T12:31:39.622Z,8.90
2023-01-13T12:34:25.079Z,8.90
2023-01-13T12:36:59.638Z,9.00
2023-01-13T12:40:17.062Z,8.90
2023-01-13T12:43:33.194Z,8.90
2023-01-13T12:46:21.392Z,8.90
2023-01-13T12:48:57.490Z,8.90
2023-01-13T12:51:35.604Z,8.90
2023-01-13T12:54:23.465Z,8.90
2023-01-13T12:56:50.184Z,8.90
2023-01-13T12:59:17.023Z,8.90
2023-01-13T13:01:45.783Z,8.90
2023-01-13T13:04:20.569Z,9.00
2023-01-13T13:07:03.596Z,8.90
2023-01-13T13:09:35.411Z,8.90
2023-01-13T13:12:49.571Z,9.00
2023-01-13T13:15:25.310Z,9.00
2023-01-13T13:18:20.349Z,9.00
2023-01-13T13:21:03.626Z,9.00
2023-01-13T13:23:37.016Z,9.00
2023-01-13T13:26:21.725Z,9.00
2023-01-13T13:28:54.567Z,9.00
2023-01-13T13:31:31.589Z,9.10
2023-01-13T13:34:19.334Z,9.00
2023-01-13T13:37:07.040Z,9.00
2023-01-13T13:39:52.735Z,9.00
2023-01-13T13:42:35.645Z,9.00
2023-01-13T13:45:30.541Z,8.90
2023-01-13T13:47:57.165Z,8.80
2023-01-13T13:50:23.854Z,8.80
2023-01-13T13:53:05.183Z,8.80
2023-01-13T13:55:32.609Z,8.80
2023-01-13T13:58:01.441Z,8.80
2023-01-13T14:00:34.803Z,8.90
2023-01-13T14:03:05.723Z,8.80
2023-01-13T14:05:37.245Z,8.80
2023-01-13T14:08:15.181Z,8.90
2023-01-13T14:10:44.853Z,8.90
2023-01-13T14:13:14.332Z,8.90
2023-01-13T14:15:41.301Z,8.90
2023-01-13T14:18:17.271Z,8.90
2023-01-13T14:20:44.109Z,8.90
2023-01-13T14:23:18.756Z,8.90
2023-01-13T14:25:51.381Z,8.90
2023-01-13T14:28:32.298Z,8.90
2023-01-13T14:30:59.962Z,9.00
2023-01-13T14:33:43.856Z,9.10
2023-01-13T14:36:22.163Z,9.20
2023-01-13T14:39:03.933Z,9.30
2023-01-13T14:41:35.863Z,9.30
2023-01-13T14:44:26.704Z,9.30
2023-01-13T14:47:00.367Z,9.30
2023-01-13T14:49:36.219Z,9.20
2023-01-13T14:52:19.222Z,9.10
2023-01-13T14:54:53.079Z,9.00
2023-01-13T14:57:32.008Z,9.00
2023-01-13T15:00:13.724Z,9.00
2023-01-13T15:02:47.480Z,8.90
2023-01-13T15:05:17.278Z,8.80
2023-01-13T15:08:06.089Z,8.80
2023-01-13T15:10:38.314Z,8.70
2023-01-13T15:13:07.311Z,8.70
2023-01-13T15:15:39.311Z,8.70
2023-01-13T15:18:15.016Z,8.60
2023-01-13T15:20:42.094Z,8.60
2023-01-13T15:23:09.222Z,8.80
2023-01-13T15:25:39.014Z,8.70
2023-01-13T15:28:07.058Z,8.50
2023-01-13T15:30:34.053Z,8.40
2023-01-13T15:33:00.739Z,8.40
2023-01-13T15:35:28.806Z,8.30
2023-01-13T15:37:56.875Z,8.20
2023-01-13T15:40:31.619Z,8.10
2023-01-13T15:43:16.979Z,8.10
2023-01-13T15:46:02.165Z,8.00
2023-01-13T15:48:33.711Z,8.00
2023-01-13T15:51:02.494Z,8.00
2023-01-13T15:53:30.182Z,8.00
2023-01-13T15:55:58.825Z,7.90
2023-01-13T15:58:28.464Z,8.00
2023-01-13T16:00:55.868Z,7.90
2023-01-13T16:03:22.612Z,7.90
2023-01-13T16:05:49.236Z,7.90
2023-01-13T16:08:21.964Z,7.90
2023-01-13T16:10:49.835Z,7.90
2023-01-13T16:13:17.724Z,7.90
2023-01-13T16:15:49.555Z,7.90
2023-01-13T16:18:24.347Z,7.90
2023-01-13T16:20:53.383Z,7.90
2023-01-13T16:23:21.121Z,7.90
2023-01-13T16:25:47.921Z,7.90
2023-01-13T16:28:20.602Z,7.80
2023-01-13T16:30:47.778Z,7.90
2023-01-13T16:33:14.831Z,7.90
2023-01-13T16:36:08.769Z,7.90
2023-01-13T16:38:28.772Z,7.90
2023-01-13T16:40:57.262Z,7.90
2023-01-13T16:43:23.863Z,7.80
2023-01-13T16:45:50.537Z,7.80
2023-01-13T16:48:20.601Z,7.80
2023-01-13T16:50:47.446Z,7.90
2023-01-13T16:53:14.094Z,7.80
2023-01-13T16:55:41.841Z,7.80
2023-01-13T16:58:20.235Z,7.80
2023-01-13T17:00:47.748Z,7.80
2023-01-13T17:03:17.511Z,7.70
2023-01-13T17:05:46.929Z,7.80
2023-01-13T17:08:17.503Z,7.70
2023-01-13T17:10:47.757Z,7.70
2023-01-13T17:13:16.965Z,7.60
2023-01-13T17:15:44.908Z,7.60
2023-01-13T17:18:13.143Z,7.60
2023-01-13T17:20:39.911Z,7.50
2023-01-13T17:23:06.547Z,7.50
2023-01-13T17:25:33.224Z,7.50
2023-01-13T17:27:59.885Z,7.50
2023-01-13T17:30:26.693Z,7.40
2023-01-13T17:32:54.976Z,7.40
2023-01-13T17:35:25.523Z,7.40
2023-01-13T17:37:53.427Z,7.40
2023-01-13T17:40:20.557Z,7.40
2023-01-13T17:42:47.198Z,7.30
2023-01-13T17:45:13.838Z,7.30
2023-01-13T17:47:40.465Z,7.30
2023-01-13T17:50:07.572Z,7.40
2023-01-13T17:52:34.384Z,7.40
2023-01-13T17:55:01.176Z,7.40
2023-01-13T17:57:27.976Z,7.40
2023-01-13T17:59:54.739Z,7.40
2023-01-13T18:02:21.520Z,7.40
2023-01-13T18:04:48.256Z,7.40
2023-01-13T18:07:14.857Z,7.50
2023-01-13T18:09:41.492Z,7.60
2023-01-13T18:12:08.229Z,7.60
2023-01-13T18:14:35.037Z,7.60
2023-01-13T18:17:01.751Z,7.60
2023-01-13T18:19:47.035Z,7.60
2023-01-13T18:22:32.958Z,7.70
2023-01-13T18:25:18.309Z,7.70
2023-01-13T18:27:45.197Z,7.80
2023-01-13T18:30:12.720Z,7.90
2023-01-13T18:32:39.744Z,7.80
2023-01-13T18:35:10.166Z,7.80
2023-01-13T18:37:41.147Z,7.80
2023-01-13T18:40:11.530Z,7.80
2023-01-13T18:42:54.610Z,7.80
2023-01-13T18:45:24.351Z,7.80
2023-01-13T18:47:51.400Z,7.80
2023-01-13T18:50:18.706Z,7.70
2023-01-13T18:52:45.704Z,7.70
2023-01-13T18:55:12.850Z,7.70
2023-01-13T18:57:42.738Z,7.70
2023-01-13T19:00:16.624Z,7.60
2023-01-13T19:02:44.580Z,7.70
2023-01-13T19:05:11.419Z,7.70
2023-01-13T19:07:38.132Z,7.70
2023-01-13T19:10:17.398Z,7.70
2023-01-13T19:12:44.036Z,7.70
2023-01-13T19:15:11.164Z,7.70
2023-01-13T19:17:37.802Z,7.70
2023-01-13T19:20:05.145Z,7.70
2023-01-13T19:22:34.215Z,7.70
2023-01-13T19:25:02.368Z,7.80
2023-01-13T19:27:29.670Z,7.80
2023-01-13T19:30:03.226Z,7.60
2023-01-13T19:32:32.858Z,7.70
2023-01-13T19:34:59.628Z,7.60
2023-01-13T19:37:31.308Z,7.60
2023-01-13T19:40:01.238Z,7.60
2023-01-13T19:42:46.581Z,7.60
2023-01-13T19:45:27.509Z,7.70
2023-01-13T19:47:55.545Z,7.70
2023-01-13T19:50:22.161Z,7.70
2023-01-13T19:52:48.730Z,7.70
2023-01-13T19:55:15.362Z,7.70
2023-01-13T19:57:43.264Z,7.70
2023-01-13T20:00:11.225Z,7.60
2023-01-13T20:02:38.656Z,7.70
2023-01-13T20:05:07.596Z,7.60
2023-01-13T20:07:35.037Z,7.60
2023-01-13T20:10:02.045Z,7.60
2023-01-13T20:12:29.633Z,7.60
2023-01-13T20:14:56.327Z,7.60
2023-01-13T20:17:25.461Z,7.50
2023-01-13T20:19:52.367Z,7.50
2023-01-13T20:22:19.041Z,7.50
2023-01-13T20:24:45.692Z,7.50
2023-01-13T20:27:12.422Z,7.50
2023-01-13T20:29:39.387Z,7.50
2023-01-13T20:32:06.134Z,7.50
2023-01-13T20:34:32.824Z,7.60
2023-01-13T20:37:00.165Z,7.60
2023-01-13T20:39:27.989Z,7.60
2023-01-13T20:42:14.243Z,7.60
2023-01-13T20:44:41.346Z,7.60
2023-01-13T20:47:08.210Z,7.60
2023-01-13T20:49:38.126Z,7.70
2023-01-13T20:52:09.353Z,7.70
2023-01-13T20:54:36.864Z,7.70
2023-01-13T20:57:05.135Z,7.70
2023-01-13T20:59:31.981Z,7.70
2023-01-13T21:01:58.645Z,7.60
2023-01-13T21:04:25.712Z,7.60
2023-01-13T21:06:52.793Z,7.60
2023-01-13T21:09:19.532Z,7.60
2023-01-13T21:12:04.892Z,7.60
2023-01-13T21:14:50.376Z,7.60
2023-01-13T21:17:35.856Z,7.60
2023-01-13T21:20:04.434Z,7.60
2023-01-13T21:22:31.306Z,7.60
2023-01-13T21:24:58.486Z,7.60
2023-01-13T21:27:25.912Z,7.60
2023-01-13T21:29:52.565Z,7.60
2023-01-13T21:32:19.242Z,7.70
2023-01-13T21:34:46.069Z,7.60
2023-01-13T21:37:12.819Z,7.70
2023-01-13T21:39:39.483Z,7.60
2023-01-13T21:42:25.698Z,7.60
2023-01-13T21:45:11.142Z,7.60
2023-01-13T21:47:50.283Z,7.60
2023-01-13T21:50:19.635Z,7.60
2023-01-13T21:52:47.947Z,7.50
2023-01-13T21:55:25.682Z,7.50
2023-01-13T21:58:06.385Z,7.60
2023-01-13T22:00:34.016Z,7.60
2023-01-13T22:03:02.787Z,7.60
2023-01-13T22:05:29.427Z,7.50
2023-01-13T22:07:56.104Z,7.50
2023-01-13T22:10:25.487Z,7.50
2023-01-13T22:12:53.961Z,7.50
2023-01-13T22:15:22.218Z,7.50
2023-01-13T22:17:52.704Z,7.50
2023-01-13T22:20:20.121Z,7.50
2023-01-13T22:22:47.371Z,7.50
2023-01-13T22:25:15.567Z,7.40
2023-01-13T22:27:44.326Z,7.40
2023-01-13T22:30:18.272Z,7.40
2023-01-13T22:32:45.973Z,7.30
2023-01-13T22:35:14.470Z,7.20
2023-01-13T22:37:41.892Z,7.20
2023-01-13T22:40:11.062Z,7.10
2023-01-13T22:42:42.101Z,7.10
2023-01-13T22:45:13.198Z,7.10
2023-01-13T22:47:39.935Z,7.10
2023-01-13T22:50:07.958Z,7.00
2023-01-13T22:52:35.335Z,7.00
2023-01-13T22:55:02.107Z,7.00
2023-01-13T22:57:36.485Z,7.00
2023-01-13T23:00:14.811Z,6.90
2023-01-13T23:02:41.637Z,6.90
2023-01-13T23:05:08.634Z,6.90
2023-01-13T23:07:36.060Z,6.90
2023-01-13T23:10:03.505Z,6.90
2023-01-13T23:12:30.207Z,6.90
2023-01-13T23:14:56.943Z,6.90
2023-01-13T23:17:23.601Z,6.90
2023-01-13T23:19:50.308Z,6.90
2023-01-13T23:22:19.601Z,6.90
2023-01-13T23:24:46.267Z,6.90
2023-01-13T23:27:13.060Z,6.80
2023-01-13T23:29:39.825Z,6.80
2023-01-13T23:32:06.567Z,6.80
2023-01-13T23:34:33.411Z,6.80
2023-01-13T23:37:00.025Z,6.80
2023-01-13T23:39:26.846Z,6.80
2023-01-13T23:41:55.097Z,6.80
2023-01-13T23:44:21.857Z,6.90
2023-01-13T23:46:48.503Z,6.80
2023-01-13T23:49:15.188Z,6.80
2023-01-13T23:51:41.894Z,6.80
2023-01-13T23:54:08.553Z,6.80
2023-01-13T23:56:39.156Z,6.90
2023-01-13T23:59:06.436Z,6.90
